sensor_id;sensor_type;location;lat;lon;timestamp;P1;durP1;ratioP1;P2;durP2;ratioP2
29954;SDS011;68448;51.188;6.868;2023-08-06T00:01:34;8.30;;;4.70;;
29954;SDS011;68448;51.188;6.868;2023-08-06T00:04:02;7.20;;;4.27;;
29954;SDS011;68448;51.188;6.868;2023-08-06T00:06:29;9.33;;;5.10;;
29954;SDS011;68448;51.188;6.868;2023-08-06T00:08:57;7.90;;;4.90;;
29954;SDS011;68448;51.188;6.868;2023-08-06T00:11:24;8.27;;;4.50;;
29954;SDS011;68448;51.188;6.868;2023-08-06T00:13:52;8.80;;;4.80;;
29954;SDS011;68448;51.188;6.868;2023-08-06T00:16:20;5.80;;;4.53;;
29954;SDS011;68448;51.188;6.868;2023-08-06T00:18:48;5.27;;;4.40;;
29954;SDS011;68448;51.188;6.868;2023-08-06T00:21:15;6.67;;;4.73;;
29954;SDS011;68448;51.188;6.868;2023-08-06T00:23:42;9.50;;;5.17;;
29954;SDS011;68448;51.188;6.868;2023-08-06T00:26:09;6.07;;;4.50;;
29954;SDS011;68448;51.188;6.868;2023-08-06T00:28:37;5.10;;;4.50;;
29954;SDS011;68448;51.188;6.868;2023-08-06T00:31:04;8.10;;;5.17;;
29954;SDS011;68448;51.188;6.868;2023-08-06T00:33:33;10.47;;;5.20;;
29954;SDS011;68448;51.188;6.868;2023-08-06T00:36:01;8.87;;;5.47;;
29954;SDS011;68448;51.188;6.868;2023-08-06T00:38:28;9.53;;;5.30;;
29954;SDS011;68448;51.188;6.868;2023-08-06T00:40:55;8.20;;;5.47;;
29954;SDS011;68448;51.188;6.868;2023-08-06T00:43:22;7.80;;;5.10;;
29954;SDS011;68448;51.188;6.868;2023-08-06T00:45:50;9.30;;;4.63;;
29954;SDS011;68448;51.188;6.868;2023-08-06T00:48:17;7.07;;;5.10;;
29954;SDS011;68448;51.188;6.868;2023-08-06T00:50:46;10.40;;;5.57;;
29954;SDS011;68448;51.188;6.868;2023-08-06T00:53:13;7.57;;;4.93;;
29954;SDS011;68448;51.188;6.868;2023-08-06T00:55:41;6.47;;;4.57;;
29954;SDS011;68448;51.188;6.868;2023-08-06T00:58:10;10.43;;;4.00;;
29954;SDS011;68448;51.188;6.868;2023-08-06T01:00:38;8.47;;;5.47;;
29954;SDS011;68448;51.188;6.868;2023-08-06T01:03:06;5.20;;;4.43;;
29954;SDS011;68448;51.188;6.868;2023-08-06T01:05:33;6.63;;;4.63;;
29954;SDS011;68448;51.188;6.868;2023-08-06T01:08:08;7.80;;;4.43;;
29954;SDS011;68448;51.188;6.868;2023-08-06T01:10:40;5.50;;;4.43;;
29954;SDS011;68448;51.188;6.868;2023-08-06T01:13:27;5.83;;;4.30;;
29954;SDS011;68448;51.188;6.868;2023-08-06T01:15:58;4.93;;;3.73;;
29954;SDS011;68448;51.188;6.868;2023-08-06T01:18:26;7.10;;;3.80;;
29954;SDS011;68448;51.188;6.868;2023-08-06T01:20:54;6.80;;;3.97;;
29954;SDS011;68448;51.188;6.868;2023-08-06T01:23:22;5.97;;;4.13;;
29954;SDS011;68448;51.188;6.868;2023-08-06T01:25:55;4.93;;;3.80;;
29954;SDS011;68448;51.188;6.868;2023-08-06T01:28:25;4.87;;;4.17;;
29954;SDS011;68448;51.188;6.868;2023-08-06T01:30:54;6.20;;;4.37;;
29954;SDS011;68448;51.188;6.868;2023-08-06T01:33:22;7.23;;;3.90;;
29954;SDS011;68448;51.188;6.868;2023-08-06T01:35:49;7.13;;;4.07;;
29954;SDS011;68448;51.188;6.868;2023-08-06T01:38:19;6.70;;;4.20;;
29954;SDS011;68448;51.188;6.868;2023-08-06T01:40:47;9.47;;;4.93;;
29954;SDS011;68448;51.188;6.868;2023-08-06T01:43:14;9.57;;;4.07;;
29954;SDS011;68448;51.188;6.868;2023-08-06T01:45:41;5.37;;;4.10;;
29954;SDS011;68448;51.188;6.868;2023-08-06T01:48:08;8.17;;;4.10;;
29954;SDS011;68448;51.188;6.868;2023-08-06T01:50:35;4.20;;;3.80;;
29954;SDS011;68448;51.188;6.868;2023-08-06T01:53:03;4.33;;;3.93;;
29954;SDS011;68448;51.188;6.868;2023-08-06T01:55:32;7.13;;;4.00;;
29954;SDS011;68448;51.188;6.868;2023-08-06T01:57:59;5.20;;;3.83;;
29954;SDS011;68448;51.188;6.868;2023-08-06T02:00:26;5.53;;;4.80;;
29954;SDS011;68448;51.188;6.868;2023-08-06T02:02:53;6.70;;;4.37;;
29954;SDS011;68448;51.188;6.868;2023-08-06T02:05:21;5.43;;;3.47;;
29954;SDS011;68448;51.188;6.868;2023-08-06T02:07:48;4.07;;;3.67;;
29954;SDS011;68448;51.188;6.868;2023-08-06T02:10:15;4.33;;;3.90;;
29954;SDS011;68448;51.188;6.868;2023-08-06T02:12:44;4.97;;;3.60;;
29954;SDS011;68448;51.188;6.868;2023-08-06T02:15:11;12.63;;;4.90;;
29954;SDS011;68448;51.188;6.868;2023-08-06T02:17:38;6.20;;;4.63;;
29954;SDS011;68448;51.188;6.868;2023-08-06T02:20:06;6.40;;;3.67;;
29954;SDS011;68448;51.188;6.868;2023-08-06T02:22:33;5.83;;;4.27;;
29954;SDS011;68448;51.188;6.868;2023-08-06T02:25:01;5.70;;;4.43;;
29954;SDS011;68448;51.188;6.868;2023-08-06T02:27:28;10.20;;;4.03;;
29954;SDS011;68448;51.188;6.868;2023-08-06T02:29:57;7.60;;;4.17;;
29954;SDS011;68448;51.188;6.868;2023-08-06T02:32:24;7.10;;;4.30;;
29954;SDS011;68448;51.188;6.868;2023-08-06T02:34:52;6.07;;;3.67;;
29954;SDS011;68448;51.188;6.868;2023-08-06T02:37:19;8.03;;;4.20;;
29954;SDS011;68448;51.188;6.868;2023-08-06T02:39:46;10.60;;;4.40;;
29954;SDS011;68448;51.188;6.868;2023-08-06T02:42:14;6.73;;;4.30;;
29954;SDS011;68448;51.188;6.868;2023-08-06T02:44:41;6.00;;;4.47;;
29954;SDS011;68448;51.188;6.868;2023-08-06T02:47:10;4.40;;;4.00;;
29954;SDS011;68448;51.188;6.868;2023-08-06T02:49:38;5.33;;;4.37;;
29954;SDS011;68448;51.188;6.868;2023-08-06T02:52:06;6.27;;;4.60;;
29954;SDS011;68448;51.188;6.868;2023-08-06T02:54:33;7.57;;;4.10;;
29954;SDS011;68448;51.188;6.868;2023-08-06T02:57:01;4.40;;;4.00;;
29954;SDS011;68448;51.188;6.868;2023-08-06T02:59:31;6.90;;;4.00;;
29954;SDS011;68448;51.188;6.868;2023-08-06T03:02:26;5.10;;;4.10;;
29954;SDS011;68448;51.188;6.868;2023-08-06T03:04:59;5.10;;;3.93;;
29954;SDS011;68448;51.188;6.868;2023-08-06T03:07:31;9.27;;;5.03;;
29954;SDS011;68448;51.188;6.868;2023-08-06T03:10:05;6.00;;;4.10;;
29954;SDS011;68448;51.188;6.868;2023-08-06T03:12:32;7.50;;;4.73;;
29954;SDS011;68448;51.188;6.868;2023-08-06T03:15:02;4.97;;;4.13;;
29954;SDS011;68448;51.188;6.868;2023-08-06T03:17:30;5.00;;;4.20;;
29954;SDS011;68448;51.188;6.868;2023-08-06T03:19:58;4.20;;;3.70;;
29954;SDS011;68448;51.188;6.868;2023-08-06T03:22:27;6.27;;;4.43;;
29954;SDS011;68448;51.188;6.868;2023-08-06T03:24:54;7.53;;;3.90;;
29954;SDS011;68448;51.188;6.868;2023-08-06T03:27:23;5.70;;;4.43;;
29954;SDS011;68448;51.188;6.868;2023-08-06T03:29:51;5.13;;;4.63;;
29954;SDS011;68448;51.188;6.868;2023-08-06T03:32:21;5.97;;;4.80;;
29954;SDS011;68448;51.188;6.868;2023-08-06T03:34:50;5.47;;;4.40;;
29954;SDS011;68448;51.188;6.868;2023-08-06T03:37:19;5.50;;;3.90;;
29954;SDS011;68448;51.188;6.868;2023-08-06T03:39:46;9.33;;;4.63;;
29954;SDS011;68448;51.188;6.868;2023-08-06T03:42:14;5.20;;;4.30;;
29954;SDS011;68448;51.188;6.868;2023-08-06T03:44:41;8.30;;;4.13;;
29954;SDS011;68448;51.188;6.868;2023-08-06T03:47:10;7.07;;;4.40;;
29954;SDS011;68448;51.188;6.868;2023-08-06T03:49:37;4.67;;;4.10;;
29954;SDS011;68448;51.188;6.868;2023-08-06T03:52:07;6.00;;;4.23;;
29954;SDS011;68448;51.188;6.868;2023-08-06T03:54:34;6.03;;;4.00;;
29954;SDS011;68448;51.188;6.868;2023-08-06T03:57:02;5.00;;;4.00;;
29954;SDS011;68448;51.188;6.868;2023-08-06T03:59:29;6.20;;;4.37;;
29954;SDS011;68448;51.188;6.868;2023-08-06T04:01:56;6.23;;;4.30;;
29954;SDS011;68448;51.188;6.868;2023-08-06T04:04:23;6.13;;;4.00;;
29954;SDS011;68448;51.188;6.868;2023-08-06T04:06:50;7.20;;;4.00;;
29954;SDS011;68448;51.188;6.868;2023-08-06T04:09:22;7.70;;;3.90;;
29954;SDS011;68448;51.188;6.868;2023-08-06T04:11:49;5.40;;;3.63;;
29954;SDS011;68448;51.188;6.868;2023-08-06T04:14:17;11.83;;;4.13;;
29954;SDS011;68448;51.188;6.868;2023-08-06T04:16:44;6.00;;;3.97;;
29954;SDS011;68448;51.188;6.868;2023-08-06T04:19:12;8.23;;;3.80;;
29954;SDS011;68448;51.188;6.868;2023-08-06T04:21:40;7.00;;;3.67;;
29954;SDS011;68448;51.188;6.868;2023-08-06T04:24:09;5.87;;;3.40;;
29954;SDS011;68448;51.188;6.868;2023-08-06T04:26:38;6.40;;;3.67;;
29954;SDS011;68448;51.188;6.868;2023-08-06T04:29:05;7.37;;;4.27;;
29954;SDS011;68448;51.188;6.868;2023-08-06T04:31:32;4.63;;;3.57;;
29954;SDS011;68448;51.188;6.868;2023-08-06T04:34:00;4.63;;;3.20;;
29954;SDS011;68448;51.188;6.868;2023-08-06T04:36:28;6.03;;;3.60;;
29954;SDS011;68448;51.188;6.868;2023-08-06T04:38:55;5.93;;;3.57;;
29954;SDS011;68448;51.188;6.868;2023-08-06T04:41:23;7.17;;;3.57;;
29954;SDS011;68448;51.188;6.868;2023-08-06T04:43:51;6.70;;;3.90;;
29954;SDS011;68448;51.188;6.868;2023-08-06T04:46:18;7.47;;;4.10;;
29954;SDS011;68448;51.188;6.868;2023-08-06T04:48:46;7.93;;;4.00;;
29954;SDS011;68448;51.188;6.868;2023-08-06T04:51:13;4.93;;;3.43;;
29954;SDS011;68448;51.188;6.868;2023-08-06T04:53:40;8.63;;;3.90;;
29954;SDS011;68448;51.188;6.868;2023-08-06T04:56:08;10.00;;;3.37;;
29954;SDS011;68448;51.188;6.868;2023-08-06T04:58:35;3.90;;;3.50;;
29954;SDS011;68448;51.188;6.868;2023-08-06T05:01:07;4.60;;;3.17;;
29954;SDS011;68448;51.188;6.868;2023-08-06T05:03:34;4.23;;;3.17;;
29954;SDS011;68448;51.188;6.868;2023-08-06T05:06:01;6.23;;;4.10;;
29954;SDS011;68448;51.188;6.868;2023-08-06T05:08:28;4.50;;;3.30;;
29954;SDS011;68448;51.188;6.868;2023-08-06T05:10:55;8.87;;;4.57;;
29954;SDS011;68448;51.188;6.868;2023-08-06T05:13:23;8.00;;;3.53;;
29954;SDS011;68448;51.188;6.868;2023-08-06T05:15:50;3.93;;;3.13;;
29954;SDS011;68448;51.188;6.868;2023-08-06T05:18:18;9.10;;;4.23;;
29954;SDS011;68448;51.188;6.868;2023-08-06T05:20:45;6.83;;;4.47;;
29954;SDS011;68448;51.188;6.868;2023-08-06T05:23:13;3.83;;;3.07;;
29954;SDS011;68448;51.188;6.868;2023-08-06T05:25:40;5.53;;;3.57;;
29954;SDS011;68448;51.188;6.868;2023-08-06T05:28:08;8.50;;;3.57;;
29954;SDS011;68448;51.188;6.868;2023-08-06T05:30:38;7.20;;;3.60;;
29954;SDS011;68448;51.188;6.868;2023-08-06T05:33:05;9.40;;;3.73;;
29954;SDS011;68448;51.188;6.868;2023-08-06T05:35:34;8.27;;;3.20;;
29954;SDS011;68448;51.188;6.868;2023-08-06T05:38:01;3.90;;;3.23;;
29954;SDS011;68448;51.188;6.868;2023-08-06T05:40:28;6.60;;;3.27;;
29954;SDS011;68448;51.188;6.868;2023-08-06T05:42:56;6.17;;;2.90;;
29954;SDS011;68448;51.188;6.868;2023-08-06T05:45:23;8.90;;;2.80;;
29954;SDS011;68448;51.188;6.868;2023-08-06T05:47:50;4.43;;;2.47;;
29954;SDS011;68448;51.188;6.868;2023-08-06T05:50:17;3.73;;;2.77;;
29954;SDS011;68448;51.188;6.868;2023-08-06T05:52:46;3.20;;;2.50;;
29954;SDS011;68448;51.188;6.868;2023-08-06T05:55:13;4.37;;;3.00;;
29954;SDS011;68448;51.188;6.868;2023-08-06T05:57:40;5.20;;;2.90;;
29954;SDS011;68448;51.188;6.868;2023-08-06T06:00:08;3.47;;;2.73;;
29954;SDS011;68448;51.188;6.868;2023-08-06T06:02:38;4.43;;;2.57;;
29954;SDS011;68448;51.188;6.868;2023-08-06T06:05:06;4.53;;;2.73;;
29954;SDS011;68448;51.188;6.868;2023-08-06T06:07:33;4.43;;;2.43;;
29954;SDS011;68448;51.188;6.868;2023-08-06T06:10:01;3.97;;;2.07;;
29954;SDS011;68448;51.188;6.868;2023-08-06T06:12:28;3.63;;;2.63;;
29954;SDS011;68448;51.188;6.868;2023-08-06T06:14:55;3.83;;;2.87;;
29954;SDS011;68448;51.188;6.868;2023-08-06T06:17:23;3.60;;;2.40;;
29954;SDS011;68448;51.188;6.868;2023-08-06T06:19:50;4.97;;;2.37;;
29954;SDS011;68448;51.188;6.868;2023-08-06T06:22:17;3.10;;;2.30;;
29954;SDS011;68448;51.188;6.868;2023-08-06T06:24:44;4.20;;;2.60;;
29954;SDS011;68448;51.188;6.868;2023-08-06T06:27:13;5.20;;;2.67;;
29954;SDS011;68448;51.188;6.868;2023-08-06T06:29:40;3.20;;;2.27;;
29954;SDS011;68448;51.188;6.868;2023-08-06T06:32:08;5.57;;;2.73;;
29954;SDS011;68448;51.188;6.868;2023-08-06T06:34:35;8.37;;;3.10;;
29954;SDS011;68448;51.188;6.868;2023-08-06T06:37:02;1.90;;;1.70;;
29954;SDS011;68448;51.188;6.868;2023-08-06T06:39:29;3.73;;;2.20;;
29954;SDS011;68448;51.188;6.868;2023-08-06T06:41:57;2.40;;;2.20;;
29954;SDS011;68448;51.188;6.868;2023-08-06T06:44:32;4.10;;;2.60;;
29954;SDS011;68448;51.188;6.868;2023-08-06T06:46:59;4.23;;;2.37;;
29954;SDS011;68448;51.188;6.868;2023-08-06T06:49:27;3.80;;;2.50;;
29954;SDS011;68448;51.188;6.868;2023-08-06T06:51:54;2.90;;;2.10;;
29954;SDS011;68448;51.188;6.868;2023-08-06T06:54:21;2.97;;;2.20;;
29954;SDS011;68448;51.188;6.868;2023-08-06T06:56:49;5.00;;;2.90;;
29954;SDS011;68448;51.188;6.868;2023-08-06T06:59:16;2.20;;;2.03;;
29954;SDS011;68448;51.188;6.868;2023-08-06T07:01:44;3.23;;;2.13;;
29954;SDS011;68448;51.188;6.868;2023-08-06T07:04:11;2.83;;;2.30;;
29954;SDS011;68448;51.188;6.868;2023-08-06T07:06:39;3.03;;;2.37;;
29954;SDS011;68448;51.188;6.868;2023-08-06T07:09:06;5.73;;;2.97;;
29954;SDS011;68448;51.188;6.868;2023-08-06T07:11:33;4.47;;;2.73;;
29954;SDS011;68448;51.188;6.868;2023-08-06T07:14:00;5.73;;;2.60;;
29954;SDS011;68448;51.188;6.868;2023-08-06T07:16:28;2.80;;;2.50;;
29954;SDS011;68448;51.188;6.868;2023-08-06T07:18:57;2.53;;;2.33;;
29954;SDS011;68448;51.188;6.868;2023-08-06T07:21:24;5.33;;;2.37;;
29954;SDS011;68448;51.188;6.868;2023-08-06T07:23:51;2.60;;;2.40;;
29954;SDS011;68448;51.188;6.868;2023-08-06T07:26:18;5.40;;;2.80;;
29954;SDS011;68448;51.188;6.868;2023-08-06T07:28:45;4.37;;;2.60;;
29954;SDS011;68448;51.188;6.868;2023-08-06T07:31:13;2.50;;;2.13;;
29954;SDS011;68448;51.188;6.868;2023-08-06T07:33:40;4.37;;;2.60;;
29954;SDS011;68448;51.188;6.868;2023-08-06T07:36:09;3.37;;;2.77;;
29954;SDS011;68448;51.188;6.868;2023-08-06T07:38:37;3.57;;;2.70;;
29954;SDS011;68448;51.188;6.868;2023-08-06T07:41:04;3.57;;;2.37;;
29954;SDS011;68448;51.188;6.868;2023-08-06T07:43:31;2.80;;;2.60;;
29954;SDS011;68448;51.188;6.868;2023-08-06T07:45:59;3.60;;;2.40;;
29954;SDS011;68448;51.188;6.868;2023-08-06T07:48:26;3.40;;;2.70;;
29954;SDS011;68448;51.188;6.868;2023-08-06T07:50:53;2.80;;;2.60;;
29954;SDS011;68448;51.188;6.868;2023-08-06T07:53:22;3.93;;;2.70;;
29954;SDS011;68448;51.188;6.868;2023-08-06T07:55:50;4.20;;;2.80;;
29954;SDS011;68448;51.188;6.868;2023-08-06T07:58:17;2.97;;;2.10;;
29954;SDS011;68448;51.188;6.868;2023-08-06T08:00:45;2.27;;;2.07;;
29954;SDS011;68448;51.188;6.868;2023-08-06T08:03:12;2.30;;;2.00;;
29954;SDS011;68448;51.188;6.868;2023-08-06T08:05:40;2.37;;;2.17;;
29954;SDS011;68448;51.188;6.868;2023-08-06T08:08:07;4.00;;;2.70;;
29954;SDS011;68448;51.188;6.868;2023-08-06T08:10:35;2.27;;;2.07;;
29954;SDS011;68448;51.188;6.868;2023-08-06T08:13:03;2.63;;;2.43;;
29954;SDS011;68448;51.188;6.868;2023-08-06T08:15:30;2.63;;;2.13;;
29954;SDS011;68448;51.188;6.868;2023-08-06T08:17:58;2.37;;;2.17;;
29954;SDS011;68448;51.188;6.868;2023-08-06T08:20:26;2.73;;;2.00;;
29954;SDS011;68448;51.188;6.868;2023-08-06T08:22:53;3.10;;;2.37;;
29954;SDS011;68448;51.188;6.868;2023-08-06T08:25:20;2.10;;;2.00;;
29954;SDS011;68448;51.188;6.868;2023-08-06T08:27:49;2.90;;;2.37;;
29954;SDS011;68448;51.188;6.868;2023-08-06T08:30:16;2.80;;;2.13;;
29954;SDS011;68448;51.188;6.868;2023-08-06T08:32:43;2.70;;;2.00;;
29954;SDS011;68448;51.188;6.868;2023-08-06T08:35:10;3.40;;;2.33;;
29954;SDS011;68448;51.188;6.868;2023-08-06T08:37:38;4.40;;;2.00;;
29954;SDS011;68448;51.188;6.868;2023-08-06T08:40:06;2.33;;;2.17;;
29954;SDS011;68448;51.188;6.868;2023-08-06T08:42:33;5.90;;;3.23;;
29954;SDS011;68448;51.188;6.868;2023-08-06T08:45:03;3.40;;;3.10;;
29954;SDS011;68448;51.188;6.868;2023-08-06T08:47:31;5.10;;;3.50;;
29954;SDS011;68448;51.188;6.868;2023-08-06T08:49:58;5.20;;;4.27;;
29954;SDS011;68448;51.188;6.868;2023-08-06T08:52:26;5.83;;;4.10;;
29954;SDS011;68448;51.188;6.868;2023-08-06T08:54:53;5.43;;;4.03;;
29954;SDS011;68448;51.188;6.868;2023-08-06T08:57:21;5.07;;;4.37;;
29954;SDS011;68448;51.188;6.868;2023-08-06T08:59:48;5.80;;;4.23;;
29954;SDS011;68448;51.188;6.868;2023-08-06T09:02:18;6.90;;;4.43;;
29954;SDS011;68448;51.188;6.868;2023-08-06T09:04:48;5.20;;;4.30;;
29954;SDS011;68448;51.188;6.868;2023-08-06T09:07:17;5.70;;;4.20;;
29954;SDS011;68448;51.188;6.868;2023-08-06T09:09:45;6.60;;;3.50;;
29954;SDS011;68448;51.188;6.868;2023-08-06T09:12:14;3.20;;;2.90;;
29954;SDS011;68448;51.188;6.868;2023-08-06T09:14:42;3.53;;;3.23;;
29954;SDS011;68448;51.188;6.868;2023-08-06T09:17:09;4.00;;;2.93;;
29954;SDS011;68448;51.188;6.868;2023-08-06T09:19:39;2.90;;;2.50;;
29954;SDS011;68448;51.188;6.868;2023-08-06T09:22:08;3.30;;;3.00;;
29954;SDS011;68448;51.188;6.868;2023-08-06T09:24:38;4.10;;;3.10;;
29954;SDS011;68448;51.188;6.868;2023-08-06T09:27:09;3.77;;;2.70;;
29954;SDS011;68448;51.188;6.868;2023-08-06T09:29:39;3.57;;;2.70;;
29954;SDS011;68448;51.188;6.868;2023-08-06T09:32:07;2.57;;;2.37;;
29954;SDS011;68448;51.188;6.868;2023-08-06T09:34:34;3.13;;;2.80;;
29954;SDS011;68448;51.188;6.868;2023-08-06T09:37:02;6.40;;;2.60;;
29954;SDS011;68448;51.188;6.868;2023-08-06T09:39:30;3.50;;;2.33;;
29954;SDS011;68448;51.188;6.868;2023-08-06T09:41:58;2.80;;;2.53;;
29954;SDS011;68448;51.188;6.868;2023-08-06T09:44:26;4.83;;;2.40;;
29954;SDS011;68448;51.188;6.868;2023-08-06T09:46:54;4.53;;;2.90;;
29954;SDS011;68448;51.188;6.868;2023-08-06T09:49:23;6.07;;;2.83;;
29954;SDS011;68448;51.188;6.868;2023-08-06T09:51:51;3.30;;;2.70;;
29954;SDS011;68448;51.188;6.868;2023-08-06T09:54:20;3.90;;;2.93;;
29954;SDS011;68448;51.188;6.868;2023-08-06T09:56:53;9.77;;;4.10;;
29954;SDS011;68448;51.188;6.868;2023-08-06T09:59:21;9.03;;;3.93;;
29954;SDS011;68448;51.188;6.868;2023-08-06T10:01:48;7.40;;;5.10;;
29954;SDS011;68448;51.188;6.868;2023-08-06T10:04:15;8.43;;;5.73;;
29954;SDS011;68448;51.188;6.868;2023-08-06T10:06:49;8.77;;;5.40;;
29954;SDS011;68448;51.188;6.868;2023-08-06T10:09:16;10.40;;;4.90;;
29954;SDS011;68448;51.188;6.868;2023-08-06T10:11:46;8.43;;;5.60;;
29954;SDS011;68448;51.188;6.868;2023-08-06T10:14:16;8.30;;;5.30;;
29954;SDS011;68448;51.188;6.868;2023-08-06T10:16:45;9.23;;;5.37;;
29954;SDS011;68448;51.188;6.868;2023-08-06T10:19:13;5.50;;;4.03;;
29954;SDS011;68448;51.188;6.868;2023-08-06T10:21:42;9.33;;;4.57;;
29954;SDS011;68448;51.188;6.868;2023-08-06T10:24:37;8.00;;;3.60;;
29954;SDS011;68448;51.188;6.868;2023-08-06T10:27:13;5.17;;;3.60;;
29954;SDS011;68448;51.188;6.868;2023-08-06T10:29:40;5.57;;;3.90;;
29954;SDS011;68448;51.188;6.868;2023-08-06T10:32:07;5.63;;;4.20;;
29954;SDS011;68448;51.188;6.868;2023-08-06T10:37:19;7.07;;;3.67;;
29954;SDS011;68448;51.188;6.868;2023-08-06T10:39:48;3.63;;;3.13;;
29954;SDS011;68448;51.188;6.868;2023-08-06T10:42:20;4.03;;;3.23;;
29954;SDS011;68448;51.188;6.868;2023-08-06T10:47:30;2.30;;;1.80;;
29954;SDS011;68448;51.188;6.868;2023-08-06T10:49:57;1.67;;;1.50;;
29954;SDS011;68448;51.188;6.868;2023-08-06T10:52:24;1.90;;;1.27;;
29954;SDS011;68448;51.188;6.868;2023-08-06T10:54:51;1.10;;;1.10;;
29954;SDS011;68448;51.188;6.868;2023-08-06T10:57:22;3.03;;;1.57;;
29954;SDS011;68448;51.188;6.868;2023-08-06T10:59:49;2.00;;;1.30;;
29954;SDS011;68448;51.188;6.868;2023-08-06T11:02:25;1.50;;;1.40;;
29954;SDS011;68448;51.188;6.868;2023-08-06T11:04:52;1.87;;;1.70;;
29954;SDS011;68448;51.188;6.868;2023-08-06T11:07:19;2.47;;;2.17;;
29954;SDS011;68448;51.188;6.868;2023-08-06T11:09:49;1.90;;;1.80;;
29954;SDS011;68448;51.188;6.868;2023-08-06T11:12:18;4.03;;;2.00;;
29954;SDS011;68448;51.188;6.868;2023-08-06T11:14:50;2.60;;;2.40;;
29954;SDS011;68448;51.188;6.868;2023-08-06T11:17:17;2.50;;;2.17;;
29954;SDS011;68448;51.188;6.868;2023-08-06T11:19:44;2.90;;;2.30;;
29954;SDS011;68448;51.188;6.868;2023-08-06T11:22:12;4.17;;;2.30;;
29954;SDS011;68448;51.188;6.868;2023-08-06T11:24:39;3.20;;;2.37;;
29954;SDS011;68448;51.188;6.868;2023-08-06T11:27:10;2.40;;;2.20;;
29954;SDS011;68448;51.188;6.868;2023-08-06T11:29:38;2.50;;;2.00;;
29954;SDS011;68448;51.188;6.868;2023-08-06T11:32:06;2.90;;;2.27;;
29954;SDS011;68448;51.188;6.868;2023-08-06T11:34:34;3.83;;;2.47;;
29954;SDS011;68448;51.188;6.868;2023-08-06T11:37:02;4.57;;;3.03;;
29954;SDS011;68448;51.188;6.868;2023-08-06T11:39:29;6.13;;;3.67;;
29954;SDS011;68448;51.188;6.868;2023-08-06T11:41:56;6.40;;;4.77;;
29954;SDS011;68448;51.188;6.868;2023-08-06T11:44:24;7.83;;;4.40;;
29954;SDS011;68448;51.188;6.868;2023-08-06T11:46:51;14.77;;;4.40;;
29954;SDS011;68448;51.188;6.868;2023-08-06T11:49:20;7.90;;;5.17;;
29954;SDS011;68448;51.188;6.868;2023-08-06T11:51:47;10.60;;;5.10;;
29954;SDS011;68448;51.188;6.868;2023-08-06T11:54:14;13.23;;;6.17;;
29954;SDS011;68448;51.188;6.868;2023-08-06T11:56:41;7.33;;;5.50;;
29954;SDS011;68448;51.188;6.868;2023-08-06T11:59:09;9.07;;;5.93;;
29954;SDS011;68448;51.188;6.868;2023-08-06T12:01:36;12.57;;;7.27;;
29954;SDS011;68448;51.188;6.868;2023-08-06T12:04:05;12.50;;;6.73;;
29954;SDS011;68448;51.188;6.868;2023-08-06T12:06:42;9.80;;;5.30;;
29954;SDS011;68448;51.188;6.868;2023-08-06T12:09:09;8.50;;;5.70;;
29954;SDS011;68448;51.188;6.868;2023-08-06T12:11:36;10.57;;;5.50;;
29954;SDS011;68448;51.188;6.868;2023-08-06T12:14:04;10.00;;;5.60;;
29954;SDS011;68448;51.188;6.868;2023-08-06T12:16:31;9.60;;;5.23;;
29954;SDS011;68448;51.188;6.868;2023-08-06T12:18:58;10.23;;;5.90;;
29954;SDS011;68448;51.188;6.868;2023-08-06T12:21:25;9.23;;;4.60;;
29954;SDS011;68448;51.188;6.868;2023-08-06T12:23:54;12.80;;;5.90;;
29954;SDS011;68448;51.188;6.868;2023-08-06T12:26:21;10.87;;;5.70;;
29954;SDS011;68448;51.188;6.868;2023-08-06T12:28:48;7.90;;;5.50;;
29954;SDS011;68448;51.188;6.868;2023-08-06T12:31:15;12.03;;;5.40;;
29954;SDS011;68448;51.188;6.868;2023-08-06T12:33:42;10.43;;;5.07;;
29954;SDS011;68448;51.188;6.868;2023-08-06T12:36:10;8.20;;;5.20;;
29954;SDS011;68448;51.188;6.868;2023-08-06T12:38:37;8.00;;;4.93;;
29954;SDS011;68448;51.188;6.868;2023-08-06T12:41:05;5.70;;;5.07;;
29954;SDS011;68448;51.188;6.868;2023-08-06T12:43:33;5.83;;;4.37;;
29954;SDS011;68448;51.188;6.868;2023-08-06T12:46:00;7.27;;;4.73;;
29954;SDS011;68448;51.188;6.868;2023-08-06T12:48:27;5.80;;;4.70;;
29954;SDS011;68448;51.188;6.868;2023-08-06T12:50:54;7.00;;;4.47;;
29954;SDS011;68448;51.188;6.868;2023-08-06T12:53:22;8.03;;;4.20;;
29954;SDS011;68448;51.188;6.868;2023-08-06T12:55:49;8.13;;;3.90;;
29954;SDS011;68448;51.188;6.868;2023-08-06T12:58:18;8.90;;;4.77;;
29954;SDS011;68448;51.188;6.868;2023-08-06T13:00:45;7.90;;;4.33;;
29954;SDS011;68448;51.188;6.868;2023-08-06T13:03:12;7.90;;;4.63;;
29954;SDS011;68448;51.188;6.868;2023-08-06T13:05:39;11.67;;;5.47;;
29954;SDS011;68448;51.188;6.868;2023-08-06T13:08:06;7.83;;;4.60;;
29954;SDS011;68448;51.188;6.868;2023-08-06T13:10:34;12.00;;;4.10;;
29954;SDS011;68448;51.188;6.868;2023-08-06T13:13:01;8.37;;;3.53;;
29954;SDS011;68448;51.188;6.868;2023-08-06T13:15:29;5.60;;;3.70;;
29954;SDS011;68448;51.188;6.868;2023-08-06T13:17:56;9.57;;;3.10;;
29954;SDS011;68448;51.188;6.868;2023-08-06T13:20:24;3.67;;;2.87;;
29954;SDS011;68448;51.188;6.868;2023-08-06T13:22:51;3.53;;;2.70;;
29954;SDS011;68448;51.188;6.868;2023-08-06T13:25:18;3.07;;;2.77;;
29954;SDS011;68448;51.188;6.868;2023-08-06T13:27:45;4.17;;;2.80;;
29954;SDS011;68448;51.188;6.868;2023-08-06T13:30:12;4.27;;;2.20;;
29954;SDS011;68448;51.188;6.868;2023-08-06T13:32:42;3.63;;;2.07;;
29954;SDS011;68448;51.188;6.868;2023-08-06T13:35:09;2.90;;;2.27;;
29954;SDS011;68448;51.188;6.868;2023-08-06T13:37:36;4.80;;;2.20;;
29954;SDS011;68448;51.188;6.868;2023-08-06T13:40:04;4.20;;;3.27;;
29954;SDS011;68448;51.188;6.868;2023-08-06T13:42:31;4.30;;;2.93;;
29954;SDS011;68448;51.188;6.868;2023-08-06T13:44:58;7.53;;;2.80;;
29954;SDS011;68448;51.188;6.868;2023-08-06T13:47:25;3.20;;;2.70;;
29954;SDS011;68448;51.188;6.868;2023-08-06T13:49:54;4.33;;;2.90;;
29954;SDS011;68448;51.188;6.868;2023-08-06T13:52:21;3.60;;;2.60;;
29954;SDS011;68448;51.188;6.868;2023-08-06T13:54:48;7.70;;;3.20;;
29954;SDS011;68448;51.188;6.868;2023-08-06T13:57:15;4.87;;;3.30;;
29954;SDS011;68448;51.188;6.868;2023-08-06T13:59:43;5.40;;;3.30;;
29954;SDS011;68448;51.188;6.868;2023-08-06T14:02:10;5.03;;;3.50;;
29954;SDS011;68448;51.188;6.868;2023-08-06T14:04:37;4.77;;;2.73;;
29954;SDS011;68448;51.188;6.868;2023-08-06T14:07:06;4.20;;;3.17;;
29954;SDS011;68448;51.188;6.868;2023-08-06T14:09:33;4.40;;;2.97;;
29954;SDS011;68448;51.188;6.868;2023-08-06T14:12:00;10.43;;;3.80;;
29954;SDS011;68448;51.188;6.868;2023-08-06T14:14:27;6.80;;;3.10;;
29954;SDS011;68448;51.188;6.868;2023-08-06T14:16:54;7.27;;;3.17;;
29954;SDS011;68448;51.188;6.868;2023-08-06T14:19:23;5.60;;;3.17;;
29954;SDS011;68448;51.188;6.868;2023-08-06T14:21:50;5.47;;;3.03;;
29954;SDS011;68448;51.188;6.868;2023-08-06T14:24:19;5.03;;;3.33;;
29954;SDS011;68448;51.188;6.868;2023-08-06T14:26:47;4.70;;;3.10;;
29954;SDS011;68448;51.188;6.868;2023-08-06T14:29:14;3.60;;;3.10;;
29954;SDS011;68448;51.188;6.868;2023-08-06T14:31:41;6.17;;;2.80;;
29954;SDS011;68448;51.188;6.868;2023-08-06T14:34:08;5.47;;;2.33;;
29954;SDS011;68448;51.188;6.868;2023-08-06T14:36:36;4.03;;;2.70;;
29954;SDS011;68448;51.188;6.868;2023-08-06T14:39:03;9.37;;;2.53;;
29954;SDS011;68448;51.188;6.868;2023-08-06T14:41:32;2.73;;;2.53;;
29954;SDS011;68448;51.188;6.868;2023-08-06T14:43:59;4.13;;;2.73;;
29954;SDS011;68448;51.188;6.868;2023-08-06T14:46:26;3.27;;;2.30;;
29954;SDS011;68448;51.188;6.868;2023-08-06T14:48:53;4.93;;;3.03;;
29954;SDS011;68448;51.188;6.868;2023-08-06T14:51:21;3.53;;;2.47;;
29954;SDS011;68448;51.188;6.868;2023-08-06T14:53:48;7.20;;;2.70;;
29954;SDS011;68448;51.188;6.868;2023-08-06T14:56:15;3.80;;;2.70;;
29954;SDS011;68448;51.188;6.868;2023-08-06T14:58:44;6.17;;;2.80;;